createdAt,value
2022-08-26T00:01:51.818Z,100534.09
2022-08-26T00:04:19.016Z,100529.25
2022-08-26T00:06:46.357Z,100535.53
2022-08-26T00:09:16.106Z,100530.81
2022-08-26T00:11:44.089Z,100530.00
2022-08-26T00:14:11.740Z,100539.00
2022-08-26T00:16:40.791Z,100529.09
2022-08-26T00:19:09.078Z,100532.63
2022-08-26T00:21:37.627Z,100540.38
2022-08-26T00:24:05.459Z,100547.59
2022-08-26T00:26:33.828Z,100554.25
2022-08-26T00:29:00.430Z,100558.94
2022-08-26T00:31:26.989Z,100566.59
2022-08-26T00:33:53.801Z,100540.84
2022-08-26T00:36:20.662Z,100526.91
2022-08-26T00:38:48.038Z,100529.06
2022-08-26T00:41:14.803Z,100526.53
2022-08-26T00:43:46.315Z,100511.59
2022-08-26T00:46:18.647Z,100507.38
2022-08-26T00:48:49.747Z,100505.13
2022-08-26T00:51:23.173Z,100503.81
2022-08-26T00:53:56.931Z,100507.69
2022-08-26T00:56:38.110Z,100506.31
2022-08-26T00:59:10.426Z,100496.84
2022-08-26T01:01:39.488Z,100498.38
2022-08-26T01:04:06.382Z,100500.63
2022-08-26T01:06:33.086Z,100495.25
2022-08-26T01:08:59.998Z,100496.81
2022-08-26T01:11:27.569Z,100504.00
2022-08-26T01:13:57.711Z,100507.13
2022-08-26T01:16:27.947Z,100501.09
2022-08-26T01:19:02.917Z,100504.88
2022-08-26T01:21:41.235Z,100505.28
2022-08-26T01:24:10.334Z,100505.47
2022-08-26T01:26:43.657Z,100503.16
2022-08-26T01:29:14.902Z,100498.56
2022-08-26T01:31:55.908Z,100502.84
2022-08-26T01:34:33.116Z,100503.38
2022-08-26T01:37:07.447Z,100507.47
2022-08-26T01:39:36.101Z,100498.25
2022-08-26T01:42:03.903Z,100494.47
2022-08-26T01:44:36.450Z,100497.25
2022-08-26T01:47:05.007Z,100497.63
2022-08-26T01:49:35.037Z,100502.69
2022-08-26T01:52:04.878Z,100502.44
2022-08-26T01:54:32.667Z,100498.31
2022-08-26T01:57:01.246Z,100492.19
2022-08-26T01:59:30.146Z,100500.34
2022-08-26T02:01:57.410Z,100497.81
2022-08-26T02:04:31.053Z,100492.41
2022-08-26T02:06:59.105Z,100485.63
2022-08-26T02:09:25.808Z,100485.41
2022-08-26T02:11:54.826Z,100488.06
2022-08-26T02:14:28.273Z,100481.22
2022-08-26T02:16:56.643Z,100491.44
2022-08-26T02:19:29.318Z,100489.53
2022-08-26T02:21:59.610Z,100499.00
2022-08-26T02:24:30.750Z,100496.50
2022-08-26T02:26:58.527Z,100490.69
2022-08-26T02:29:36.684Z,100487.38
2022-08-26T02:32:08.086Z,100491.06
2022-08-26T02:34:35.096Z,100491.88
2022-08-26T02:37:05.082Z,100497.38
2022-08-26T02:39:33.423Z,100490.50
2022-08-26T02:42:00.415Z,100483.81
2022-08-26T02:44:27.409Z,100486.97
2022-08-26T02:46:54.711Z,100479.53
2022-08-26T02:49:23.470Z,100476.81
2022-08-26T02:51:50.873Z,100474.09
2022-08-26T02:54:21.453Z,100477.22
2022-08-26T02:56:48.990Z,100478.66
2022-08-26T02:59:15.568Z,100482.06
2022-08-26T03:01:43.027Z,100473.47
2022-08-26T03:04:12.164Z,100477.28
2022-08-26T03:06:39.185Z,100472.38
2022-08-26T03:09:07.865Z,100477.56
2022-08-26T03:11:36.673Z,100473.34
2022-08-26T03:14:03.740Z,100468.13
2022-08-26T03:16:35.689Z,100472.94
2022-08-26T03:19:04.765Z,100473.56
2022-08-26T03:21:32.918Z,100476.44
2022-08-26T03:23:59.780Z,100467.13
2022-08-26T03:26:28.736Z,100465.22
2022-08-26T03:29:14.954Z,100457.97
2022-08-26T03:31:42.194Z,100463.03
2022-08-26T03:34:09.610Z,100460.06
2022-08-26T03:36:38.674Z,100454.66
2022-08-26T03:39:06.517Z,100460.66
2022-08-26T03:41:34.808Z,100455.16
2022-08-26T03:44:02.427Z,100455.13
2022-08-26T03:46:35.942Z,100456.53
2022-08-26T03:49:05.830Z,100454.00
2022-08-26T03:51:35.007Z,100450.47
2022-08-26T03:54:06.251Z,100459.25
2022-08-26T03:56:36.545Z,100460.94
2022-08-26T03:59:03.566Z,100457.81
2022-08-26T04:01:31.372Z,100462.59
2022-08-26T04:04:00.203Z,100453.81
2022-08-26T04:06:33.709Z,100454.31
2022-08-26T04:09:04.289Z,100459.25
2022-08-26T04:11:34.529Z,100454.66
2022-08-26T04:14:04.260Z,100456.72
2022-08-26T04:16:31.510Z,100450.47
2022-08-26T04:18:59.486Z,100448.63
2022-08-26T04:21:27.397Z,100455.47
2022-08-26T04:23:55.051Z,100464.56
2022-08-26T04:26:23.478Z,100459.44
2022-08-26T04:28:52.442Z,100453.41
2022-08-26T04:31:19.313Z,100456.41
2022-08-26T04:33:49.617Z,100455.22
2022-08-26T04:36:17.411Z,100456.16
2022-08-26T04:38:46.013Z,100462.50
2022-08-26T04:41:15.221Z,100449.63
2022-08-26T04:43:44.274Z,100452.59
2022-08-26T04:46:13.028Z,100453.13
2022-08-26T04:48:41.131Z,100465.94
2022-08-26T04:51:09.939Z,100462.84
2022-08-26T04:53:37.325Z,100463.69
2022-08-26T04:56:04.862Z,100465.34
2022-08-26T04:58:32.312Z,100467.63
2022-08-26T05:00:59.795Z,100474.31
2022-08-26T05:03:30.574Z,100463.25
2022-08-26T05:05:58.785Z,100481.66
2022-08-26T05:08:25.741Z,100479.19
2022-08-26T05:10:56.673Z,100479.19
2022-08-26T05:13:26.385Z,100472.88
2022-08-26T05:15:54.333Z,100475.41
2022-08-26T05:18:23.093Z,100470.47
2022-08-26T05:20:54.025Z,100479.94
2022-08-26T05:23:23.162Z,100479.25
2022-08-26T05:25:57.028Z,100484.75
2022-08-26T05:28:28.267Z,100485.44
2022-08-26T05:30:55.877Z,100487.72
2022-08-26T05:33:23.095Z,100485.91
2022-08-26T05:35:49.928Z,100493.78
2022-08-26T05:38:21.906Z,100488.34
2022-08-26T05:40:52.754Z,100474.88
2022-08-26T05:43:20.317Z,100472.03
2022-08-26T05:45:49.872Z,100469.47
2022-08-26T05:48:22.780Z,100464.66
2022-08-26T05:50:52.991Z,100462.66
2022-08-26T05:53:21.696Z,100476.69
2022-08-26T05:55:51.478Z,100468.31
2022-08-26T05:58:20.901Z,100480.59
2022-08-26T06:01:20.262Z,100471.09
2022-08-26T06:03:51.655Z,100463.00
2022-08-26T06:06:27.467Z,100468.72
2022-08-26T06:08:55.579Z,100471.84
2022-08-26T06:11:25.365Z,100471.63
2022-08-26T06:13:58.997Z,100471.41
2022-08-26T06:16:32.407Z,100474.97
2022-08-26T06:19:02.817Z,100474.53
2022-08-26T06:21:33.156Z,100476.03
2022-08-26T06:24:21.510Z,100468.31
2022-08-26T06:27:01.359Z,100473.53
2022-08-26T06:29:30.853Z,100471.69
2022-08-26T06:31:57.942Z,100469.19
2022-08-26T06:34:29.926Z,100468.09
2022-08-26T06:36:59.513Z,100474.78
2022-08-26T06:39:26.084Z,100474.59
2022-08-26T06:41:53.238Z,100469.19
2022-08-26T06:44:20.255Z,100477.53
2022-08-26T06:46:50.697Z,100474.19
2022-08-26T06:49:18.187Z,100482.78
2022-08-26T06:51:52.841Z,100472.47
2022-08-26T06:54:19.519Z,100462.88
2022-08-26T06:56:46.342Z,100471.13
2022-08-26T06:59:15.922Z,100473.59
2022-08-26T07:01:45.120Z,100469.78
2022-08-26T07:04:15.614Z,100466.47
2022-08-26T07:06:50.235Z,100467.19
2022-08-26T07:09:21.779Z,100474.53
2022-08-26T07:11:49.738Z,100469.56
2022-08-26T07:14:21.183Z,100470.84
2022-08-26T07:16:50.485Z,100479.66
2022-08-26T07:19:30.463Z,100476.50
2022-08-26T07:22:04.486Z,100479.66
2022-08-26T07:24:35.535Z,100475.41
2022-08-26T07:27:09.429Z,100467.09
2022-08-26T07:29:37.545Z,100474.56
2022-08-26T07:32:05.103Z,100487.19
2022-08-26T07:34:34.818Z,100494.66
2022-08-26T07:37:01.571Z,100490.94
2022-08-26T07:39:31.587Z,100491.16
2022-08-26T07:42:00.815Z,100493.75
2022-08-26T07:44:28.056Z,100487.09
2022-08-26T07:46:54.772Z,100487.97
2022-08-26T07:49:22.934Z,100488.78
2022-08-26T07:51:50.569Z,100487.31
2022-08-26T07:54:17.456Z,100480.00
2022-08-26T07:56:46.021Z,100484.63
2022-08-26T07:59:13.769Z,100487.28
2022-08-26T08:01:44.914Z,100499.44
2022-08-26T08:04:17.395Z,100495.13
2022-08-26T08:06:45.885Z,100497.16
2022-08-26T08:09:13.933Z,100492.63
2022-08-26T08:11:45.008Z,100500.72
2022-08-26T08:14:12.130Z,100488.88
2022-08-26T08:16:45.786Z,100494.38
2022-08-26T08:19:15.039Z,100497.34
2022-08-26T08:21:43.142Z,100513.22
2022-08-26T08:24:11.079Z,100503.59
2022-08-26T08:26:38.177Z,100522.44
2022-08-26T08:29:05.784Z,100513.66
2022-08-26T08:34:21.588Z,100520.34
2022-08-26T08:36:50.276Z,100520.38
2022-08-26T08:39:20.243Z,100523.44
2022-08-26T08:42:10.788Z,100525.78
2022-08-26T08:44:42.810Z,100529.53
2022-08-26T08:47:34.065Z,100550.88
2022-08-26T08:50:12.954Z,100534.09
2022-08-26T08:52:44.322Z,100534.72
2022-08-26T08:55:18.051Z,100537.69
2022-08-26T08:58:10.003Z,100542.13
2022-08-26T09:00:45.421Z,100547.16
2022-08-26T09:03:22.571Z,100555.53
2022-08-26T09:05:52.365Z,100561.81
2022-08-26T09:08:28.335Z,100560.31
2022-08-26T09:10:59.140Z,100567.75
2022-08-26T09:13:27.298Z,100557.00
2022-08-26T09:16:10.745Z,100543.16
2022-08-26T09:18:45.987Z,100547.66
2022-08-26T09:21:16.029Z,100537.25
2022-08-26T09:23:49.160Z,100546.06
2022-08-26T09:26:39.682Z,100546.81
2022-08-26T09:29:40.881Z,100560.22
2022-08-26T09:32:21.224Z,100548.22
2022-08-26T09:34:54.008Z,100539.13
2022-08-26T09:40:34.631Z,100546.44
2022-08-26T09:43:23.131Z,100534.56
2022-08-26T09:46:16.883Z,100552.50
2022-08-26T09:48:43.918Z,100540.00
2022-08-26T09:51:23.097Z,100528.06
2022-08-26T09:53:52.661Z,100537.75
2022-08-26T09:56:32.034Z,100528.38
2022-08-26T09:58:59.698Z,100524.16
2022-08-26T10:01:44.766Z,100522.09
2022-08-26T10:04:13.846Z,100521.66
2022-08-26T10:06:56.814Z,100517.00
2022-08-26T10:09:25.765Z,100517.06
2022-08-26T10:11:55.750Z,100523.91
2022-08-26T10:14:29.458Z,100521.38
2022-08-26T10:17:30.922Z,100520.41
2022-08-26T10:20:22.452Z,100519.03
2022-08-26T10:23:00.225Z,100515.91
2022-08-26T10:25:51.213Z,100513.31
2022-08-26T10:28:40.695Z,100516.75
2022-08-26T10:31:27.598Z,100517.25
2022-08-26T10:34:00.009Z,100499.88
2022-08-26T10:39:58.520Z,100501.06
2022-08-26T10:42:38.017Z,100495.47
2022-08-26T10:45:15.005Z,100492.50
2022-08-26T10:48:05.254Z,100491.28
2022-08-26T10:50:37.273Z,100485.63
2022-08-26T10:53:11.079Z,100484.88
2022-08-26T10:55:40.670Z,100478.19
2022-08-26T10:58:29.070Z,100479.09
2022-08-26T11:01:27.710Z,100476.28
2022-08-26T11:04:42.299Z,100476.78
2022-08-26T11:07:36.667Z,100484.97
2022-08-26T11:10:12.846Z,100479.84
2022-08-26T11:12:39.328Z,100472.22
2022-08-26T11:15:19.882Z,100478.31
2022-08-26T11:17:51.278Z,100475.59
2022-08-26T11:20:31.072Z,100481.50
2022-08-26T11:23:20.618Z,100488.22
2022-08-26T11:25:57.200Z,100474.69
2022-08-26T11:28:44.701Z,100478.19
2022-08-26T11:31:18.680Z,100482.50
2022-08-26T11:33:52.146Z,100471.03
2022-08-26T11:36:40.312Z,100468.38
2022-08-26T11:39:15.605Z,100456.03
2022-08-26T11:41:47.341Z,100443.06
2022-08-26T11:44:21.622Z,100448.81
2022-08-26T11:46:57.963Z,100434.59
2022-08-26T11:49:25.281Z,100441.94
2022-08-26T11:51:52.377Z,100452.53
2022-08-26T11:54:30.777Z,100447.63
2022-08-26T11:57:09.526Z,100441.63
2022-08-26T11:59:41.497Z,100448.47
2022-08-26T12:02:17.836Z,100427.34
2022-08-26T12:04:49.406Z,100424.34
2022-08-26T12:07:18.548Z,100413.13
2022-08-26T12:10:02.295Z,100416.50
2022-08-26T12:12:38.521Z,100412.66
2022-08-26T12:15:18.620Z,100407.19
2022-08-26T12:17:50.498Z,100407.16
2022-08-26T12:20:31.167Z,100403.00
2022-08-26T12:23:00.043Z,100408.38
2022-08-26T12:25:27.960Z,100403.84
2022-08-26T12:28:03.643Z,100390.94
2022-08-26T12:30:31.088Z,100400.81
2022-08-26T12:33:22.828Z,100393.00
2022-08-26T12:35:56.299Z,100378.72
2022-08-26T12:38:25.272Z,100372.69
2022-08-26T12:40:52.457Z,100372.41
2022-08-26T12:43:40.342Z,100365.41
2022-08-26T12:46:10.191Z,100368.41
2022-08-26T12:48:40.423Z,100355.78
2022-08-26T12:51:16.037Z,100352.19
2022-08-26T12:53:44.408Z,100352.06
2022-08-26T12:56:29.869Z,100360.22
2022-08-26T12:59:24.979Z,100363.22
2022-08-26T13:01:52.582Z,100366.78
2022-08-26T13:04:41.038Z,100361.63
2022-08-26T13:07:22.630Z,100356.75
2022-08-26T13:09:51.190Z,100361.06
2022-08-26T13:12:25.835Z,100362.69
2022-08-26T13:14:52.392Z,100357.06
2022-08-26T13:17:18.969Z,100357.56
2022-08-26T13:19:45.506Z,100356.69
2022-08-26T13:22:13.905Z,100349.53
2022-08-26T13:24:42.990Z,100355.56
2022-08-26T13:27:12.891Z,100345.69
2022-08-26T13:29:39.689Z,100352.56
2022-08-26T13:32:08.554Z,100358.19
2022-08-26T13:34:37.230Z,100365.75
2022-08-26T13:37:04.737Z,100360.47
2022-08-26T13:39:31.485Z,100355.91
2022-08-26T13:41:58.531Z,100360.69
2022-08-26T13:44:25.169Z,100354.69
2022-08-26T13:46:52.379Z,100357.06
2022-08-26T13:49:18.927Z,100363.19
2022-08-26T13:51:45.465Z,100354.59
2022-08-26T13:54:12.411Z,100358.13
2022-08-26T13:56:39.275Z,100355.50
2022-08-26T13:59:06.510Z,100352.72
2022-08-26T14:01:34.817Z,100361.31
2022-08-26T14:04:02.840Z,100358.56
2022-08-26T14:06:29.981Z,100353.34
2022-08-26T14:08:57.181Z,100350.53
2022-08-26T14:11:24.954Z,100345.94
2022-08-26T14:13:52.336Z,100341.31
2022-08-26T14:16:25.527Z,100348.03
2022-08-26T14:18:52.921Z,100340.63
2022-08-26T14:21:19.466Z,100342.94
2022-08-26T14:23:46.593Z,100331.56
2022-08-26T14:26:27.731Z,100330.38
2022-08-26T14:28:58.712Z,100330.25
2022-08-26T14:31:27.281Z,100328.13
2022-08-26T14:33:56.642Z,100321.81
2022-08-26T14:36:31.209Z,100320.16
2022-08-26T14:39:07.887Z,100312.97
2022-08-26T14:41:40.583Z,100315.06
2022-08-26T14:44:13.133Z,100324.31
2022-08-26T14:46:47.859Z,100321.50
2022-08-26T14:49:15.065Z,100325.13
2022-08-26T14:51:41.714Z,100326.53
2022-08-26T14:54:12.741Z,100324.16
2022-08-26T14:56:41.421Z,100332.94
2022-08-26T14:59:08.028Z,100340.00
2022-08-26T15:01:34.943Z,100334.91
2022-08-26T15:04:02.021Z,100337.97
2022-08-26T15:06:30.035Z,100330.53
2022-08-26T15:08:56.921Z,100328.38
2022-08-26T15:11:23.599Z,100331.41
2022-08-26T15:13:50.142Z,100327.56
2022-08-26T15:16:16.865Z,100322.03
2022-08-26T15:18:43.485Z,100330.56
2022-08-26T15:21:10.354Z,100332.22
2022-08-26T15:23:39.410Z,100331.69
2022-08-26T15:26:11.714Z,100325.34
2022-08-26T15:28:38.925Z,100320.97
2022-08-26T15:31:06.806Z,100325.34
2022-08-26T15:33:34.451Z,100326.72
2022-08-26T15:36:04.886Z,100325.88
2022-08-26T15:38:33.528Z,100331.41
2022-08-26T15:41:03.324Z,100323.69
2022-08-26T15:43:30.426Z,100326.44
2022-08-26T15:45:57.811Z,100329.66
2022-08-26T15:48:25.373Z,100322.75
2022-08-26T15:50:59.842Z,100327.03
2022-08-26T15:53:28.200Z,100334.47
2022-08-26T15:55:56.439Z,100337.22
2022-08-26T16:01:13.726Z,100340.97
2022-08-26T16:03:49.061Z,100337.16
2022-08-26T16:06:17.570Z,100339.50
2022-08-26T16:08:45.155Z,100345.84
2022-08-26T16:11:13.431Z,100346.09
2022-08-26T16:13:40.382Z,100351.00
2022-08-26T16:16:07.868Z,100352.22
2022-08-26T16:18:34.934Z,100354.41
2022-08-26T16:21:13.627Z,100348.75
2022-08-26T16:23:44.937Z,100336.81
2022-08-26T16:26:15.910Z,100331.28
2022-08-26T16:28:43.598Z,100329.88
2022-08-26T16:31:11.370Z,100328.84
2022-08-26T16:33:38.369Z,100331.47
2022-08-26T16:36:06.721Z,100331.22
2022-08-26T16:38:34.656Z,100340.00
2022-08-26T16:41:01.978Z,100340.56
2022-08-26T16:43:28.739Z,100324.44
2022-08-26T16:45:55.982Z,100321.75
2022-08-26T16:48:23.704Z,100332.94
2022-08-26T16:50:51.534Z,100339.44
2022-08-26T16:53:19.051Z,100347.63
2022-08-26T16:55:47.592Z,100356.78
2022-08-26T16:58:14.932Z,100362.84
2022-08-26T17:00:41.741Z,100368.41
2022-08-26T17:03:09.035Z,100376.59
2022-08-26T17:05:36.307Z,100366.81
2022-08-26T17:08:04.172Z,100370.53
2022-08-26T17:10:31.834Z,100375.84
2022-08-26T17:12:58.934Z,100376.06
2022-08-26T17:15:26.136Z,100374.50
2022-08-26T17:17:53.808Z,100374.16
2022-08-26T17:20:22.552Z,100375.66
2022-08-26T17:22:51.152Z,100375.78
2022-08-26T17:25:28.678Z,100368.66
2022-08-26T17:30:23.865Z,100372.03
2022-08-26T17:32:50.885Z,100384.28
2022-08-26T17:35:18.734Z,100392.13
2022-08-26T17:37:46.317Z,100398.88
2022-08-26T17:40:16.410Z,100397.56
2022-08-26T17:42:43.098Z,100397.72
2022-08-26T17:45:11.170Z,100394.31
2022-08-26T17:47:39.972Z,100390.50
2022-08-26T17:50:09.439Z,100391.50
2022-08-26T17:52:37.769Z,100388.97
2022-08-26T17:55:06.369Z,100388.44
2022-08-26T17:57:38.786Z,100387.00
2022-08-26T18:00:16.439Z,100386.09
2022-08-26T18:12:52.972Z,100392.94
2022-08-26T18:15:20.029Z,100387.00
2022-08-26T18:17:46.619Z,100391.91
2022-08-26T18:20:16.285Z,100397.50
2022-08-26T18:22:44.753Z,100412.66
2022-08-26T18:25:14.892Z,100407.13
2022-08-26T18:27:41.831Z,100412.59
2022-08-26T18:30:17.249Z,100429.28
2022-08-26T18:32:44.175Z,100440.88
2022-08-26T18:35:11.683Z,100429.66
2022-08-26T18:37:38.639Z,100437.28
2022-08-26T18:40:11.342Z,100432.63
2022-08-26T18:42:38.405Z,100427.94
2022-08-26T18:45:07.342Z,100430.19
2022-08-26T18:47:34.431Z,100420.34
2022-08-26T18:50:02.589Z,100424.88
2022-08-26T18:52:29.205Z,100425.97
2022-08-26T18:54:56.030Z,100422.78
2022-08-26T18:57:22.665Z,100432.38
2022-08-26T18:59:49.345Z,100428.63
2022-08-26T19:02:16.086Z,100434.06
2022-08-26T19:04:42.893Z,100427.28
2022-08-26T19:07:09.497Z,100421.69
2022-08-26T19:09:36.115Z,100416.66
2022-08-26T19:12:03.242Z,100415.81
2022-08-26T19:14:31.129Z,100421.41
2022-08-26T19:16:58.102Z,100420.59
2022-08-26T19:19:24.723Z,100431.47
2022-08-26T19:21:51.699Z,100424.09
2022-08-26T19:24:20.238Z,100429.09
2022-08-26T19:26:57.761Z,100423.34
2022-08-26T19:29:33.340Z,100420.25
2022-08-26T19:32:00.112Z,100413.56
2022-08-26T19:34:26.757Z,100426.03
2022-08-26T19:36:54.030Z,100421.25
2022-08-26T19:39:21.226Z,100419.63
2022-08-26T19:41:48.993Z,100420.34
2022-08-26T19:44:38.170Z,100419.91
2022-08-26T19:47:07.361Z,100419.66
2022-08-26T19:49:34.990Z,100415.75
2022-08-26T19:52:02.957Z,100424.16
2022-08-26T19:54:29.905Z,100418.38
2022-08-26T19:56:57.578Z,100423.97
2022-08-26T19:59:24.636Z,100423.38
2022-08-26T20:02:01.507Z,100425.88
2022-08-26T20:04:32.232Z,100419.84
2022-08-26T20:07:00.872Z,100421.78
2022-08-26T20:09:32.914Z,100429.09
2022-08-26T20:12:00.465Z,100430.25
2022-08-26T20:14:27.867Z,100428.97
2022-08-26T20:16:54.917Z,100438.03
2022-08-26T20:19:40.318Z,100437.41
2022-08-26T20:22:07.454Z,100431.38
2022-08-26T20:24:36.065Z,100438.56
2022-08-26T20:27:07.747Z,100446.09
2022-08-26T20:29:35.502Z,100446.19
2022-08-26T20:32:02.560Z,100453.03
2022-08-26T20:34:30.090Z,100449.00
2022-08-26T20:36:57.052Z,100456.50
2022-08-26T20:39:23.668Z,100454.91
2022-08-26T20:41:50.248Z,100460.59
2022-08-26T20:44:17.719Z,100463.25
2022-08-26T20:46:44.793Z,100463.88
2022-08-26T20:49:12.605Z,100454.50
2022-08-26T20:51:39.516Z,100456.19
2022-08-26T20:54:06.952Z,100467.44
2022-08-26T20:56:34.326Z,100473.94
2022-08-26T20:59:01.378Z,100471.94
2022-08-26T21:01:34.276Z,100466.94
2022-08-26T21:04:04.885Z,100475.63
2022-08-26T21:06:33.722Z,100474.50
2022-08-26T21:09:01.505Z,100477.97
2022-08-26T21:11:29.120Z,100477.16
2022-08-26T21:14:07.506Z,100483.09
2022-08-26T21:16:43.878Z,100495.28
2022-08-26T21:19:13.095Z,100499.53
2022-08-26T21:21:40.900Z,100492.78
2022-08-26T21:24:08.464Z,100504.97
2022-08-26T21:26:35.330Z,100501.66
2022-08-26T21:29:02.921Z,100494.91
2022-08-26T21:31:31.700Z,100504.03
2022-08-26T21:33:58.516Z,100498.81
2022-08-26T21:36:25.498Z,100491.75
2022-08-26T21:38:52.243Z,100489.47
2022-08-26T21:41:21.839Z,100490.63
2022-08-26T21:43:50.868Z,100487.78
2022-08-26T21:46:21.918Z,100488.59
2022-08-26T21:48:53.745Z,100490.16
2022-08-26T21:51:22.870Z,100493.81
2022-08-26T21:53:50.258Z,100489.88
2022-08-26T21:56:19.043Z,100486.59
2022-08-26T21:58:46.261Z,100487.91
2022-08-26T22:01:16.202Z,100472.44
2022-08-26T22:03:46.887Z,100476.63
2022-08-26T22:06:14.194Z,100484.94
2022-08-26T22:08:41.292Z,100488.75
2022-08-26T22:11:09.766Z,100488.28
2022-08-26T22:13:38.969Z,100486.00
2022-08-26T22:16:06.961Z,100487.06
2022-08-26T22:18:34.753Z,100492.91
2022-08-26T22:21:05.044Z,100496.63
2022-08-26T22:23:32.256Z,100494.78
2022-08-26T22:25:59.047Z,100499.84
2022-08-26T22:28:26.009Z,100501.22
2022-08-26T22:30:52.948Z,100509.66
2022-08-26T22:33:19.913Z,100510.69
2022-08-26T22:35:48.450Z,100509.13
2022-08-26T22:38:15.562Z,100512.81
2022-08-26T22:40:50.271Z,100509.78
2022-08-26T22:43:18.815Z,100500.88
2022-08-26T22:45:47.597Z,100501.94
2022-08-26T22:48:17.195Z,100504.97
2022-08-26T22:50:45.829Z,100514.72
2022-08-26T22:53:13.232Z,100505.59
2022-08-26T22:55:40.640Z,100499.91
2022-08-26T22:58:08.146Z,100503.72
2022-08-26T23:00:35.663Z,100507.44
2022-08-26T23:03:03.428Z,100501.84
2022-08-26T23:05:31.001Z,100500.25
2022-08-26T23:07:58.411Z,100494.91
2022-08-26T23:10:25.646Z,100502.78
2022-08-26T23:12:52.830Z,100504.25
2022-08-26T23:15:20.999Z,100500.88
2022-08-26T23:17:58.466Z,100488.72
2022-08-26T23:20:27.669Z,100487.03
2022-08-26T23:22:55.094Z,100487.50
2022-08-26T23:25:23.180Z,100479.00
2022-08-26T23:27:51.922Z,100487.03
2022-08-26T23:30:21.710Z,100481.91
2022-08-26T23:32:48.299Z,100488.28
2022-08-26T23:35:15.206Z,100483.31
2022-08-26T23:37:44.967Z,100484.22
2022-08-26T23:40:16.746Z,100477.09
2022-08-26T23:42:43.987Z,100465.16
2022-08-26T23:45:12.929Z,100471.47
2022-08-26T23:47:41.045Z,100476.09
2022-08-26T23:50:08.506Z,100477.97
2022-08-26T23:52:54.118Z,100469.19
2022-08-26T23:55:20.967Z,100462.72
2022-08-26T23:57:47.517Z,100461.16
